sensor_id;sensor_type;location;lat;lon;timestamp;temperature;humidity
48936;DHT22;34745;52.276;10.528;2024-03-06T00:00:13;5.50;1.00
48936;DHT22;34745;52.276;10.528;2024-03-06T00:02:42;5.50;1.00
48936;DHT22;34745;52.276;10.528;2024-03-06T00:05:09;5.60;1.00
48936;DHT22;34745;52.276;10.528;2024-03-06T00:07:37;5.50;1.00
48936;DHT22;34745;52.276;10.528;2024-03-06T00:10:05;5.60;1.00
48936;DHT22;34745;52.276;10.528;2024-03-06T00:12:32;5.60;1.00
48936;DHT22;34745;52.276;10.528;2024-03-06T00:14:59;5.60;1.00
48936;DHT22;34745;52.276;10.528;2024-03-06T00:17:27;5.60;1.00
48936;DHT22;34745;52.276;10.528;2024-03-06T00:19:56;5.50;1.00
48936;DHT22;34745;52.276;10.528;2024-03-06T00:22:22;5.50;1.00
48936;DHT22;34745;52.276;10.528;2024-03-06T00:24:51;5.50;1.00
48936;DHT22;34745;52.276;10.528;2024-03-06T00:27:18;5.50;1.00
48936;DHT22;34745;52.276;10.528;2024-03-06T00:29:48;5.60;1.00
48936;DHT22;34745;52.276;10.528;2024-03-06T00:32:15;5.70;1.00
48936;DHT22;34745;52.276;10.528;2024-03-06T00:34:42;5.60;1.00
48936;DHT22;34745;52.276;10.528;2024-03-06T00:37:11;5.50;1.00
48936;DHT22;34745;52.276;10.528;2024-03-06T00:39:38;5.50;1.00
48936;DHT22;34745;52.276;10.528;2024-03-06T00:42:05;5.50;1.00
48936;DHT22;34745;52.276;10.528;2024-03-06T00:44:31;5.50;1.00
48936;DHT22;34745;52.276;10.528;2024-03-06T00:46:59;5.60;1.00
48936;DHT22;34745;52.276;10.528;2024-03-06T00:49:26;5.60;1.00
48936;DHT22;34745;52.276;10.528;2024-03-06T00:51:53;5.60;1.00
48936;DHT22;34745;52.276;10.528;2024-03-06T00:54:21;5.60;1.00
48936;DHT22;34745;52.276;10.528;2024-03-06T00:56:49;5.60;1.00
48936;DHT22;34745;52.276;10.528;2024-03-06T00:59:16;5.60;1.00
48936;DHT22;34745;52.276;10.528;2024-03-06T01:01:43;5.50;1.00
48936;DHT22;34745;52.276;10.528;2024-03-06T01:04:10;5.70;1.00
48936;DHT22;34745;52.276;10.528;2024-03-06T01:06:37;5.50;1.00
48936;DHT22;34745;52.276;10.528;2024-03-06T01:09:04;5.50;1.00
48936;DHT22;34745;52.276;10.528;2024-03-06T01:11:33;5.50;1.00
48936;DHT22;34745;52.276;10.528;2024-03-06T01:13:59;5.50;1.00
48936;DHT22;34745;52.276;10.528;2024-03-06T01:16:27;5.70;1.00
48936;DHT22;34745;52.276;10.528;2024-03-06T01:18:54;5.70;1.00
48936;DHT22;34745;52.276;10.528;2024-03-06T01:21:21;5.50;1.00
48936;DHT22;34745;52.276;10.528;2024-03-06T01:23:47;5.50;1.00
48936;DHT22;34745;52.276;10.528;2024-03-06T01:26:15;5.50;1.00
48936;DHT22;34745;52.276;10.528;2024-03-06T01:28:43;5.50;1.00
48936;DHT22;34745;52.276;10.528;2024-03-06T01:31:10;5.40;1.00
48936;DHT22;34745;52.276;10.528;2024-03-06T01:33:37;5.40;1.00
48936;DHT22;34745;52.276;10.528;2024-03-06T01:36:05;5.50;1.00
48936;DHT22;34745;52.276;10.528;2024-03-06T01:38:32;5.40;1.00
48936;DHT22;34745;52.276;10.528;2024-03-06T01:40:59;5.40;1.00
48936;DHT22;34745;52.276;10.528;2024-03-06T01:43:27;5.40;1.00
48936;DHT22;34745;52.276;10.528;2024-03-06T01:45:55;5.40;1.00
48936;DHT22;34745;52.276;10.528;2024-03-06T01:48:24;5.60;1.00
48936;DHT22;34745;52.276;10.528;2024-03-06T01:50:53;5.30;1.00
48936;DHT22;34745;52.276;10.528;2024-03-06T01:53:23;5.40;1.00
48936;DHT22;34745;52.276;10.528;2024-03-06T01:55:51;5.30;1.00
48936;DHT22;34745;52.276;10.528;2024-03-06T01:58:19;5.30;1.00
48936;DHT22;34745;52.276;10.528;2024-03-06T02:00:49;5.40;1.00
48936;DHT22;34745;52.276;10.528;2024-03-06T02:03:18;5.40;1.00
48936;DHT22;34745;52.276;10.528;2024-03-06T02:05:47;5.40;1.00
48936;DHT22;34745;52.276;10.528;2024-03-06T02:08:15;5.30;1.00
48936;DHT22;34745;52.276;10.528;2024-03-06T02:10:44;5.30;1.00
48936;DHT22;34745;52.276;10.528;2024-03-06T02:13:12;5.30;1.00
48936;DHT22;34745;52.276;10.528;2024-03-06T02:15:40;5.30;1.00
48936;DHT22;34745;52.276;10.528;2024-03-06T02:18:08;5.30;1.00
48936;DHT22;34745;52.276;10.528;2024-03-06T02:20:39;5.40;1.00
48936;DHT22;34745;52.276;10.528;2024-03-06T02:23:09;5.40;1.00
48936;DHT22;34745;52.276;10.528;2024-03-06T02:25:36;5.40;1.00
48936;DHT22;34745;52.276;10.528;2024-03-06T02:28:04;5.40;1.00
48936;DHT22;34745;52.276;10.528;2024-03-06T02:30:33;5.40;1.00
48936;DHT22;34745;52.276;10.528;2024-03-06T02:33:04;5.50;1.00
48936;DHT22;34745;52.276;10.528;2024-03-06T02:35:33;5.50;1.00
48936;DHT22;34745;52.276;10.528;2024-03-06T02:38:03;5.50;1.00
48936;DHT22;34745;52.276;10.528;2024-03-06T02:40:34;5.40;1.00
48936;DHT22;34745;52.276;10.528;2024-03-06T02:43:01;5.40;1.00
48936;DHT22;34745;52.276;10.528;2024-03-06T02:45:28;5.40;1.00
48936;DHT22;34745;52.276;10.528;2024-03-06T02:47:55;5.30;1.00
48936;DHT22;34745;52.276;10.528;2024-03-06T02:50:22;5.30;1.00
48936;DHT22;34745;52.276;10.528;2024-03-06T02:52:50;5.30;1.00
48936;DHT22;34745;52.276;10.528;2024-03-06T02:55:20;5.20;1.00
48936;DHT22;34745;52.276;10.528;2024-03-06T02:57:47;5.20;1.00
48936;DHT22;34745;52.276;10.528;2024-03-06T03:00:15;5.20;1.00
48936;DHT22;34745;52.276;10.528;2024-03-06T03:02:42;5.20;1.00
48936;DHT22;34745;52.276;10.528;2024-03-06T03:05:10;5.30;1.00
48936;DHT22;34745;52.276;10.528;2024-03-06T03:07:37;5.20;1.00
48936;DHT22;34745;52.276;10.528;2024-03-06T03:10:04;5.30;1.00
48936;DHT22;34745;52.276;10.528;2024-03-06T03:12:33;5.20;1.00
48936;DHT22;34745;52.276;10.528;2024-03-06T03:15:00;5.20;1.00
48936;DHT22;34745;52.276;10.528;2024-03-06T03:17:27;5.20;1.00
48936;DHT22;34745;52.276;10.528;2024-03-06T03:19:54;5.00;1.00
48936;DHT22;34745;52.276;10.528;2024-03-06T03:22:21;5.10;1.00
48936;DHT22;34745;52.276;10.528;2024-03-06T03:24:49;5.10;1.00
48936;DHT22;34745;52.276;10.528;2024-03-06T03:27:16;5.20;1.00
48936;DHT22;34745;52.276;10.528;2024-03-06T03:29:44;5.20;1.00
48936;DHT22;34745;52.276;10.528;2024-03-06T03:32:11;5.20;1.00
48936;DHT22;34745;52.276;10.528;2024-03-06T03:34:38;5.20;1.00
48936;DHT22;34745;52.276;10.528;2024-03-06T03:37:05;5.30;1.00
48936;DHT22;34745;52.276;10.528;2024-03-06T03:39:32;5.20;1.00
48936;DHT22;34745;52.276;10.528;2024-03-06T03:41:59;5.20;1.00
48936;DHT22;34745;52.276;10.528;2024-03-06T03:44:26;5.30;1.00
48936;DHT22;34745;52.276;10.528;2024-03-06T03:46:54;5.20;1.00
48936;DHT22;34745;52.276;10.528;2024-03-06T03:49:21;5.20;1.00
48936;DHT22;34745;52.276;10.528;2024-03-06T03:51:48;5.30;1.00
48936;DHT22;34745;52.276;10.528;2024-03-06T03:54:15;5.20;1.00
48936;DHT22;34745;52.276;10.528;2024-03-06T03:56:42;5.20;1.00
48936;DHT22;34745;52.276;10.528;2024-03-06T03:59:09;5.20;1.00
48936;DHT22;34745;52.276;10.528;2024-03-06T04:01:36;5.10;1.00
48936;DHT22;34745;52.276;10.528;2024-03-06T04:04:05;5.10;1.00
48936;DHT22;34745;52.276;10.528;2024-03-06T04:06:31;5.00;1.00
48936;DHT22;34745;52.276;10.528;2024-03-06T04:08:59;5.10;1.00
48936;DHT22;34745;52.276;10.528;2024-03-06T04:11:25;5.10;1.00
48936;DHT22;34745;52.276;10.528;2024-03-06T04:13:53;5.00;1.00
48936;DHT22;34745;52.276;10.528;2024-03-06T04:16:20;5.00;1.00
48936;DHT22;34745;52.276;10.528;2024-03-06T04:18:47;5.10;1.00
48936;DHT22;34745;52.276;10.528;2024-03-06T04:21:15;5.10;1.00
48936;DHT22;34745;52.276;10.528;2024-03-06T04:23:44;5.10;1.00
48936;DHT22;34745;52.276;10.528;2024-03-06T04:26:11;5.20;1.00
48936;DHT22;34745;52.276;10.528;2024-03-06T04:28:38;5.20;1.00
48936;DHT22;34745;52.276;10.528;2024-03-06T04:31:06;5.10;1.00
48936;DHT22;34745;52.276;10.528;2024-03-06T04:33:33;5.30;1.00
48936;DHT22;34745;52.276;10.528;2024-03-06T04:36:02;5.00;1.00
48936;DHT22;34745;52.276;10.528;2024-03-06T04:38:32;5.00;1.00
48936;DHT22;34745;52.276;10.528;2024-03-06T04:40:59;5.10;1.00
48936;DHT22;34745;52.276;10.528;2024-03-06T04:43:26;5.10;1.00
48936;DHT22;34745;52.276;10.528;2024-03-06T04:45:53;5.10;1.00
48936;DHT22;34745;52.276;10.528;2024-03-06T04:48:20;5.00;1.00
48936;DHT22;34745;52.276;10.528;2024-03-06T04:50:47;5.00;1.00
48936;DHT22;34745;52.276;10.528;2024-03-06T04:53:15;5.30;1.00
48936;DHT22;34745;52.276;10.528;2024-03-06T04:55:44;5.00;1.00
48936;DHT22;34745;52.276;10.528;2024-03-06T04:58:11;5.00;1.00
48936;DHT22;34745;52.276;10.528;2024-03-06T05:00:38;5.00;1.00
48936;DHT22;34745;52.276;10.528;2024-03-06T05:03:05;5.00;1.00
48936;DHT22;34745;52.276;10.528;2024-03-06T05:05:50;5.00;1.00
48936;DHT22;34745;52.276;10.528;2024-03-06T05:08:35;5.00;1.00
48936;DHT22;34745;52.276;10.528;2024-03-06T05:11:20;5.00;1.00
48936;DHT22;34745;52.276;10.528;2024-03-06T05:14:05;5.00;1.00
48936;DHT22;34745;52.276;10.528;2024-03-06T05:16:49;5.00;1.00
48936;DHT22;34745;52.276;10.528;2024-03-06T05:19:34;4.90;1.00
48936;DHT22;34745;52.276;10.528;2024-03-06T05:22:18;4.90;1.00
48936;DHT22;34745;52.276;10.528;2024-03-06T05:25:04;4.90;1.00
48936;DHT22;34745;52.276;10.528;2024-03-06T05:27:51;4.80;1.00
48936;DHT22;34745;52.276;10.528;2024-03-06T05:30:36;4.90;1.00
48936;DHT22;34745;52.276;10.528;2024-03-06T05:33:21;4.80;1.00
48936;DHT22;34745;52.276;10.528;2024-03-06T05:36:06;4.90;1.00
48936;DHT22;34745;52.276;10.528;2024-03-06T05:38:50;4.90;1.00
48936;DHT22;34745;52.276;10.528;2024-03-06T05:41:35;4.90;1.00
48936;DHT22;34745;52.276;10.528;2024-03-06T05:44:21;5.30;1.00
48936;DHT22;34745;52.276;10.528;2024-03-06T05:47:05;4.90;1.00
48936;DHT22;34745;52.276;10.528;2024-03-06T05:49:50;4.90;1.00
48936;DHT22;34745;52.276;10.528;2024-03-06T05:52:35;4.80;1.00
48936;DHT22;34745;52.276;10.528;2024-03-06T05:55:20;4.80;1.00
48936;DHT22;34745;52.276;10.528;2024-03-06T05:58:04;4.80;1.00
48936;DHT22;34745;52.276;10.528;2024-03-06T06:00:39;4.70;1.00
48936;DHT22;34745;52.276;10.528;2024-03-06T06:03:07;4.70;1.00
48936;DHT22;34745;52.276;10.528;2024-03-06T06:05:35;4.70;1.00
48936;DHT22;34745;52.276;10.528;2024-03-06T06:08:04;4.70;1.00
48936;DHT22;34745;52.276;10.528;2024-03-06T06:10:31;4.70;1.00
48936;DHT22;34745;52.276;10.528;2024-03-06T06:12:59;4.70;1.00
48936;DHT22;34745;52.276;10.528;2024-03-06T06:15:26;4.80;1.00
48936;DHT22;34745;52.276;10.528;2024-03-06T06:17:55;5.00;1.00
48936;DHT22;34745;52.276;10.528;2024-03-06T06:20:22;4.80;1.00
48936;DHT22;34745;52.276;10.528;2024-03-06T06:22:49;4.80;1.00
48936;DHT22;34745;52.276;10.528;2024-03-06T06:25:16;4.90;1.00
48936;DHT22;34745;52.276;10.528;2024-03-06T06:27:43;4.80;1.00
48936;DHT22;34745;52.276;10.528;2024-03-06T06:30:11;4.80;1.00
48936;DHT22;34745;52.276;10.528;2024-03-06T06:32:40;4.70;1.00
48936;DHT22;34745;52.276;10.528;2024-03-06T06:35:10;4.70;1.00
48936;DHT22;34745;52.276;10.528;2024-03-06T06:37:39;4.70;1.00
48936;DHT22;34745;52.276;10.528;2024-03-06T06:40:07;4.70;1.00
48936;DHT22;34745;52.276;10.528;2024-03-06T06:42:35;4.70;1.00
48936;DHT22;34745;52.276;10.528;2024-03-06T06:45:03;4.60;1.00
48936;DHT22;34745;52.276;10.528;2024-03-06T06:47:30;4.60;1.00
48936;DHT22;34745;52.276;10.528;2024-03-06T06:49:57;4.60;1.00
48936;DHT22;34745;52.276;10.528;2024-03-06T06:52:25;4.60;1.00
48936;DHT22;34745;52.276;10.528;2024-03-06T06:54:54;4.70;1.00
48936;DHT22;34745;52.276;10.528;2024-03-06T06:57:22;4.60;1.00
48936;DHT22;34745;52.276;10.528;2024-03-06T06:59:49;4.60;1.00
48936;DHT22;34745;52.276;10.528;2024-03-06T07:02:17;4.70;1.00
48936;DHT22;34745;52.276;10.528;2024-03-06T07:04:44;4.70;1.00
48936;DHT22;34745;52.276;10.528;2024-03-06T07:07:11;4.80;1.00
48936;DHT22;34745;52.276;10.528;2024-03-06T07:09:39;4.90;1.00
48936;DHT22;34745;52.276;10.528;2024-03-06T07:12:07;5.00;1.00
48936;DHT22;34745;52.276;10.528;2024-03-06T07:14:34;4.90;1.00
48936;DHT22;34745;52.276;10.528;2024-03-06T07:17:02;4.90;1.00
48936;DHT22;34745;52.276;10.528;2024-03-06T07:19:30;4.90;1.00
48936;DHT22;34745;52.276;10.528;2024-03-06T07:21:57;4.90;1.00
48936;DHT22;34745;52.276;10.528;2024-03-06T07:24:24;5.00;1.00
48936;DHT22;34745;52.276;10.528;2024-03-06T07:26:53;5.00;1.00
48936;DHT22;34745;52.276;10.528;2024-03-06T07:29:20;5.10;1.00
48936;DHT22;34745;52.276;10.528;2024-03-06T07:31:47;5.10;1.00
48936;DHT22;34745;52.276;10.528;2024-03-06T07:34:14;5.10;1.00
48936;DHT22;34745;52.276;10.528;2024-03-06T07:36:41;5.10;1.00
48936;DHT22;34745;52.276;10.528;2024-03-06T07:39:09;5.10;1.00
48936;DHT22;34745;52.276;10.528;2024-03-06T07:41:36;5.10;1.00
48936;DHT22;34745;52.276;10.528;2024-03-06T07:44:05;5.20;1.00
48936;DHT22;34745;52.276;10.528;2024-03-06T07:46:32;5.20;1.00
48936;DHT22;34745;52.276;10.528;2024-03-06T07:48:59;5.30;1.00
48936;DHT22;34745;52.276;10.528;2024-03-06T07:51:26;5.30;1.00
48936;DHT22;34745;52.276;10.528;2024-03-06T07:53:54;5.30;1.00
48936;DHT22;34745;52.276;10.528;2024-03-06T07:56:21;5.30;1.00
48936;DHT22;34745;52.276;10.528;2024-03-06T07:58:48;5.30;1.00
48936;DHT22;34745;52.276;10.528;2024-03-06T08:01:17;5.30;1.00
48936;DHT22;34745;52.276;10.528;2024-03-06T08:03:45;5.40;1.00
48936;DHT22;34745;52.276;10.528;2024-03-06T08:06:12;5.40;1.00
48936;DHT22;34745;52.276;10.528;2024-03-06T08:08:43;5.50;1.00
48936;DHT22;34745;52.276;10.528;2024-03-06T08:11:11;5.50;1.00
48936;DHT22;34745;52.276;10.528;2024-03-06T08:13:39;5.60;1.00
48936;DHT22;34745;52.276;10.528;2024-03-06T08:16:07;5.70;1.00
48936;DHT22;34745;52.276;10.528;2024-03-06T08:18:36;5.70;1.00
48936;DHT22;34745;52.276;10.528;2024-03-06T08:21:04;5.80;1.00
48936;DHT22;34745;52.276;10.528;2024-03-06T08:23:32;5.90;1.00
48936;DHT22;34745;52.276;10.528;2024-03-06T08:26:00;5.90;1.00
48936;DHT22;34745;52.276;10.528;2024-03-06T08:28:27;6.00;1.00
48936;DHT22;34745;52.276;10.528;2024-03-06T08:30:54;6.00;1.00
48936;DHT22;34745;52.276;10.528;2024-03-06T08:33:21;6.10;1.00
48936;DHT22;34745;52.276;10.528;2024-03-06T08:35:51;6.20;1.00
48936;DHT22;34745;52.276;10.528;2024-03-06T08:38:18;6.20;1.00
48936;DHT22;34745;52.276;10.528;2024-03-06T08:40:46;6.20;1.00
48936;DHT22;34745;52.276;10.528;2024-03-06T08:43:13;6.20;1.00
48936;DHT22;34745;52.276;10.528;2024-03-06T08:45:42;6.30;1.00
48936;DHT22;34745;52.276;10.528;2024-03-06T08:48:09;6.20;1.00
48936;DHT22;34745;52.276;10.528;2024-03-06T08:50:39;6.40;1.00
48936;DHT22;34745;52.276;10.528;2024-03-06T08:53:07;6.40;1.00
48936;DHT22;34745;52.276;10.528;2024-03-06T08:55:36;6.50;1.00
48936;DHT22;34745;52.276;10.528;2024-03-06T08:58:04;6.40;1.00
48936;DHT22;34745;52.276;10.528;2024-03-06T09:00:31;6.50;1.00
48936;DHT22;34745;52.276;10.528;2024-03-06T09:02:58;6.50;1.00
48936;DHT22;34745;52.276;10.528;2024-03-06T09:05:25;6.60;1.00
48936;DHT22;34745;52.276;10.528;2024-03-06T09:07:53;6.60;1.00
48936;DHT22;34745;52.276;10.528;2024-03-06T09:10:22;5.80;1.00
48936;DHT22;34745;52.276;10.528;2024-03-06T09:12:48;6.80;1.00
48936;DHT22;34745;52.276;10.528;2024-03-06T09:15:15;6.80;1.00
48936;DHT22;34745;52.276;10.528;2024-03-06T09:17:43;7.00;1.00
48936;DHT22;34745;52.276;10.528;2024-03-06T09:20:12;7.10;1.00
48936;DHT22;34745;52.276;10.528;2024-03-06T09:22:41;7.10;1.00
48936;DHT22;34745;52.276;10.528;2024-03-06T09:25:09;7.10;1.00
48936;DHT22;34745;52.276;10.528;2024-03-06T09:27:38;7.20;1.00
48936;DHT22;34745;52.276;10.528;2024-03-06T09:30:06;7.20;1.00
48936;DHT22;34745;52.276;10.528;2024-03-06T09:32:35;7.30;1.00
48936;DHT22;34745;52.276;10.528;2024-03-06T09:35:03;7.20;1.00
48936;DHT22;34745;52.276;10.528;2024-03-06T09:37:30;7.30;1.00
48936;DHT22;34745;52.276;10.528;2024-03-06T09:39:57;7.40;1.00
48936;DHT22;34745;52.276;10.528;2024-03-06T09:42:25;7.40;1.00
48936;DHT22;34745;52.276;10.528;2024-03-06T09:44:53;7.60;1.00
48936;DHT22;34745;52.276;10.528;2024-03-06T09:47:22;7.40;1.00
48936;DHT22;34745;52.276;10.528;2024-03-06T09:49:52;7.40;1.00
48936;DHT22;34745;52.276;10.528;2024-03-06T09:52:24;7.60;1.00
48936;DHT22;34745;52.276;10.528;2024-03-06T09:54:54;7.30;1.00
48936;DHT22;34745;52.276;10.528;2024-03-06T09:57:21;7.40;1.00
48936;DHT22;34745;52.276;10.528;2024-03-06T09:59:49;7.50;1.00
48936;DHT22;34745;52.276;10.528;2024-03-06T10:02:30;7.70;1.00
48936;DHT22;34745;52.276;10.528;2024-03-06T10:05:01;7.60;1.00
48936;DHT22;34745;52.276;10.528;2024-03-06T10:07:30;8.00;1.00
48936;DHT22;34745;52.276;10.528;2024-03-06T10:09:57;8.30;1.00
48936;DHT22;34745;52.276;10.528;2024-03-06T10:12:24;8.20;1.00
48936;DHT22;34745;52.276;10.528;2024-03-06T10:14:52;8.40;1.00
48936;DHT22;34745;52.276;10.528;2024-03-06T10:17:22;8.40;1.00
48936;DHT22;34745;52.276;10.528;2024-03-06T10:19:55;8.60;1.00
48936;DHT22;34745;52.276;10.528;2024-03-06T10:22:22;8.60;1.00
48936;DHT22;34745;52.276;10.528;2024-03-06T10:24:55;8.40;1.00
48936;DHT22;34745;52.276;10.528;2024-03-06T10:27:23;8.10;1.00
48936;DHT22;34745;52.276;10.528;2024-03-06T10:30:01;8.10;1.00
48936;DHT22;34745;52.276;10.528;2024-03-06T10:32:33;8.20;1.00
48936;DHT22;34745;52.276;10.528;2024-03-06T10:35:00;8.10;1.00
48936;DHT22;34745;52.276;10.528;2024-03-06T10:37:29;8.20;1.00
48936;DHT22;34745;52.276;10.528;2024-03-06T10:39:58;8.20;1.00
48936;DHT22;34745;52.276;10.528;2024-03-06T10:42:28;8.30;1.00
48936;DHT22;34745;52.276;10.528;2024-03-06T10:44:59;8.40;1.00
48936;DHT22;34745;52.276;10.528;2024-03-06T10:47:28;8.50;1.00
48936;DHT22;34745;52.276;10.528;2024-03-06T10:49:59;8.50;1.00
48936;DHT22;34745;52.276;10.528;2024-03-06T10:52:28;8.40;1.00
48936;DHT22;34745;52.276;10.528;2024-03-06T10:54:59;8.40;1.00
48936;DHT22;34745;52.276;10.528;2024-03-06T10:57:27;8.40;1.00
48936;DHT22;34745;52.276;10.528;2024-03-06T10:59:56;8.60;1.00
48936;DHT22;34745;52.276;10.528;2024-03-06T11:02:30;8.60;1.00
48936;DHT22;34745;52.276;10.528;2024-03-06T11:04:59;8.60;1.00
48936;DHT22;34745;52.276;10.528;2024-03-06T11:07:27;8.70;1.00
48936;DHT22;34745;52.276;10.528;2024-03-06T11:09:58;8.70;1.00
48936;DHT22;34745;52.276;10.528;2024-03-06T11:12:33;8.90;1.00
48936;DHT22;34745;52.276;10.528;2024-03-06T11:15:09;9.10;1.00
48936;DHT22;34745;52.276;10.528;2024-03-06T11:17:36;9.00;1.00
48936;DHT22;34745;52.276;10.528;2024-03-06T11:20:17;9.00;1.00
48936;DHT22;34745;52.276;10.528;2024-03-06T11:23:07;9.00;1.00
48936;DHT22;34745;52.276;10.528;2024-03-06T11:26:01;9.20;1.00
48936;DHT22;34745;52.276;10.528;2024-03-06T11:28:30;9.30;1.00
48936;DHT22;34745;52.276;10.528;2024-03-06T11:30:59;9.30;1.00
48936;DHT22;34745;52.276;10.528;2024-03-06T11:33:36;9.50;1.00
48936;DHT22;34745;52.276;10.528;2024-03-06T11:36:19;9.70;1.00
48936;DHT22;34745;52.276;10.528;2024-03-06T11:38:50;10.00;1.00
48936;DHT22;34745;52.276;10.528;2024-03-06T11:41:20;10.00;1.00
48936;DHT22;34745;52.276;10.528;2024-03-06T11:43:51;10.20;1.00
48936;DHT22;34745;52.276;10.528;2024-03-06T11:46:20;10.30;1.00
48936;DHT22;34745;52.276;10.528;2024-03-06T11:48:52;10.60;1.00
48936;DHT22;34745;52.276;10.528;2024-03-06T11:51:21;10.80;1.00
48936;DHT22;34745;52.276;10.528;2024-03-06T11:53:52;11.50;1.00
48936;DHT22;34745;52.276;10.528;2024-03-06T11:56:19;10.80;1.00
48936;DHT22;34745;52.276;10.528;2024-03-06T11:58:47;10.60;1.00
48936;DHT22;34745;52.276;10.528;2024-03-06T12:01:16;10.40;1.00
48936;DHT22;34745;52.276;10.528;2024-03-06T12:03:47;10.10;1.00
48936;DHT22;34745;52.276;10.528;2024-03-06T12:06:15;10.00;1.00
48936;DHT22;34745;52.276;10.528;2024-03-06T12:08:45;10.20;1.00
48936;DHT22;34745;52.276;10.528;2024-03-06T12:11:12;10.50;1.00
48936;DHT22;34745;52.276;10.528;2024-03-06T12:13:41;10.60;1.00
48936;DHT22;34745;52.276;10.528;2024-03-06T12:16:09;10.70;1.00
48936;DHT22;34745;52.276;10.528;2024-03-06T12:18:38;10.80;1.00
48936;DHT22;34745;52.276;10.528;2024-03-06T12:21:05;10.90;1.00
48936;DHT22;34745;52.276;10.528;2024-03-06T12:23:32;11.00;1.00
48936;DHT22;34745;52.276;10.528;2024-03-06T12:26:05;11.30;1.00
48936;DHT22;34745;52.276;10.528;2024-03-06T12:28:33;11.50;1.00
48936;DHT22;34745;52.276;10.528;2024-03-06T12:31:02;11.80;1.00
48936;DHT22;34745;52.276;10.528;2024-03-06T12:33:30;11.80;1.00
48936;DHT22;34745;52.276;10.528;2024-03-06T12:36:04;12.10;1.00
48936;DHT22;34745;52.276;10.528;2024-03-06T12:38:32;12.30;1.00
48936;DHT22;34745;52.276;10.528;2024-03-06T12:41:00;12.60;1.00
48936;DHT22;34745;52.276;10.528;2024-03-06T12:43:28;12.80;1.00
48936;DHT22;34745;52.276;10.528;2024-03-06T12:45:56;13.10;1.00
48936;DHT22;34745;52.276;10.528;2024-03-06T12:48:25;13.20;1.00
48936;DHT22;34745;52.276;10.528;2024-03-06T12:50:53;13.20;1.00
48936;DHT22;34745;52.276;10.528;2024-03-06T12:53:21;13.40;1.00
48936;DHT22;34745;52.276;10.528;2024-03-06T12:55:49;13.60;1.00
48936;DHT22;34745;52.276;10.528;2024-03-06T12:58:16;13.60;1.00
48936;DHT22;34745;52.276;10.528;2024-03-06T13:00:45;13.80;1.00
48936;DHT22;34745;52.276;10.528;2024-03-06T13:03:12;14.00;1.00
48936;DHT22;34745;52.276;10.528;2024-03-06T13:05:39;14.00;1.00
48936;DHT22;34745;52.276;10.528;2024-03-06T13:08:06;14.10;1.00
48936;DHT22;34745;52.276;10.528;2024-03-06T13:10:33;14.30;1.00
48936;DHT22;34745;52.276;10.528;2024-03-06T13:13:02;15.30;1.00
48936;DHT22;34745;52.276;10.528;2024-03-06T13:15:29;14.60;1.00
48936;DHT22;34745;52.276;10.528;2024-03-06T13:17:57;14.50;1.00
48936;DHT22;34745;52.276;10.528;2024-03-06T13:20:25;14.50;1.00
48936;DHT22;34745;52.276;10.528;2024-03-06T13:22:52;14.60;1.00
48936;DHT22;34745;52.276;10.528;2024-03-06T13:25:19;14.20;1.00
48936;DHT22;34745;52.276;10.528;2024-03-06T13:27:46;14.10;1.00
48936;DHT22;34745;52.276;10.528;2024-03-06T13:30:13;14.20;1.00
48936;DHT22;34745;52.276;10.528;2024-03-06T13:32:40;14.40;1.00
48936;DHT22;34745;52.276;10.528;2024-03-06T13:35:11;14.20;1.00
48936;DHT22;34745;52.276;10.528;2024-03-06T13:37:40;14.30;1.00
48936;DHT22;34745;52.276;10.528;2024-03-06T13:40:08;14.70;1.00
48936;DHT22;34745;52.276;10.528;2024-03-06T13:42:37;14.30;99.90
48936;DHT22;34745;52.276;10.528;2024-03-06T13:45:05;14.30;1.00
48936;DHT22;34745;52.276;10.528;2024-03-06T13:47:32;14.30;1.00
48936;DHT22;34745;52.276;10.528;2024-03-06T13:49:59;13.90;1.40
48936;DHT22;34745;52.276;10.528;2024-03-06T13:52:28;13.70;1.00
48936;DHT22;34745;52.276;10.528;2024-03-06T13:54:54;13.00;1.00
48936;DHT22;34745;52.276;10.528;2024-03-06T13:57:22;13.00;1.00
48936;DHT22;34745;52.276;10.528;2024-03-06T13:59:49;13.20;1.00
48936;DHT22;34745;52.276;10.528;2024-03-06T14:02:17;13.60;1.00
48936;DHT22;34745;52.276;10.528;2024-03-06T14:04:44;13.60;1.00
48936;DHT22;34745;52.276;10.528;2024-03-06T14:07:11;13.30;1.00
48936;DHT22;34745;52.276;10.528;2024-03-06T14:09:39;13.30;1.00
48936;DHT22;34745;52.276;10.528;2024-03-06T14:12:08;13.10;1.00
48936;DHT22;34745;52.276;10.528;2024-03-06T14:14:35;13.10;1.00
48936;DHT22;34745;52.276;10.528;2024-03-06T14:17:02;13.00;1.00
48936;DHT22;34745;52.276;10.528;2024-03-06T14:19:30;13.20;1.00
48936;DHT22;34745;52.276;10.528;2024-03-06T14:21:57;13.60;1.00
48936;DHT22;34745;52.276;10.528;2024-03-06T14:24:28;14.10;1.00
48936;DHT22;34745;52.276;10.528;2024-03-06T14:26:58;14.50;1.00
48936;DHT22;34745;52.276;10.528;2024-03-06T14:29:25;14.50;99.90
48936;DHT22;34745;52.276;10.528;2024-03-06T14:31:55;14.40;1.00
48936;DHT22;34745;52.276;10.528;2024-03-06T14:34:22;14.50;1.40
48936;DHT22;34745;52.276;10.528;2024-03-06T14:36:50;14.60;99.90
48936;DHT22;34745;52.276;10.528;2024-03-06T14:39:18;14.40;1.00
48936;DHT22;34745;52.276;10.528;2024-03-06T14:41:45;13.90;1.00
48936;DHT22;34745;52.276;10.528;2024-03-06T14:44:15;13.90;1.00
48936;DHT22;34745;52.276;10.528;2024-03-06T14:46:42;14.30;1.00
48936;DHT22;34745;52.276;10.528;2024-03-06T14:49:10;14.60;99.90
48936;DHT22;34745;52.276;10.528;2024-03-06T14:51:37;14.90;1.00
48936;DHT22;34745;52.276;10.528;2024-03-06T14:54:05;14.50;1.40
48936;DHT22;34745;52.276;10.528;2024-03-06T14:56:32;13.70;1.00
48936;DHT22;34745;52.276;10.528;2024-03-06T14:58:59;13.40;1.00
48936;DHT22;34745;52.276;10.528;2024-03-06T15:01:27;13.00;1.00
48936;DHT22;34745;52.276;10.528;2024-03-06T15:03:55;12.70;1.00
48936;DHT22;34745;52.276;10.528;2024-03-06T15:06:22;12.80;1.00
48936;DHT22;34745;52.276;10.528;2024-03-06T15:08:49;13.00;1.00
48936;DHT22;34745;52.276;10.528;2024-03-06T15:11:17;12.80;1.00
48936;DHT22;34745;52.276;10.528;2024-03-06T15:13:44;12.20;1.00
48936;DHT22;34745;52.276;10.528;2024-03-06T15:16:12;11.90;1.00
48936;DHT22;34745;52.276;10.528;2024-03-06T15:18:41;11.60;1.00
48936;DHT22;34745;52.276;10.528;2024-03-06T15:21:08;11.30;1.00
48936;DHT22;34745;52.276;10.528;2024-03-06T15:23:35;11.30;1.00
48936;DHT22;34745;52.276;10.528;2024-03-06T15:26:03;11.00;1.00
48936;DHT22;34745;52.276;10.528;2024-03-06T15:28:30;10.90;1.00
48936;DHT22;34745;52.276;10.528;2024-03-06T15:30:57;10.70;1.00
48936;DHT22;34745;52.276;10.528;2024-03-06T15:33:24;10.50;1.00
48936;DHT22;34745;52.276;10.528;2024-03-06T15:35:53;10.40;1.00
48936;DHT22;34745;52.276;10.528;2024-03-06T15:38:21;10.30;1.00
48936;DHT22;34745;52.276;10.528;2024-03-06T15:40:48;10.30;1.00
48936;DHT22;34745;52.276;10.528;2024-03-06T15:43:17;10.20;1.00
48936;DHT22;34745;52.276;10.528;2024-03-06T15:45:45;10.20;1.00
48936;DHT22;34745;52.276;10.528;2024-03-06T15:48:11;10.30;1.00
48936;DHT22;34745;52.276;10.528;2024-03-06T15:50:42;10.30;1.00
48936;DHT22;34745;52.276;10.528;2024-03-06T15:53:11;10.20;1.00